Time;durP1;ratioP1;P1;durP2;ratioP2;P2;SDS_P1;SDS_P2;PMS_P1;PMS_P2;Temp;Humidity;BMP_temperature;BMP_pressure;BME280_temperature;BME280_humidity;BME280_pressure;Samples;Min_cycle;Max_cycle;Signal;HPM_P1;HPM_P2
2022/11/08 00:01:51;;;;;;;4.17;1.53;;;14.70;99.90;;;;;;5053408;28;20603;-87
2022/11/08 00:04:18;;;;;;;7.00;1.00;;;14.70;99.90;;;;;;5053207;28;20581;-87
2022/11/08 00:14:59;;;;;;;5.00;1.00;;;14.80;99.90;;;;;;5033923;28;21135;-87
2022/11/08 00:17:27;;;;;;;3.80;1.00;;;14.90;99.90;;;;;;5015133;28;20630;-87
2022/11/08 00:19:53;;;;;;;6.10;1.47;;;14.90;99.90;;;;;;5033164;28;20569;-88
2022/11/08 00:22:19;;;;;;;2.93;1.40;;;14.90;99.90;;;;;;5035332;28;20925;-88
2022/11/08 00:24:45;;;;;;;7.40;1.27;;;14.90;99.90;;;;;;5032958;28;20569;-88
2022/11/08 00:27:16;;;;;;;4.33;1.00;;;15.00;99.90;;;;;;5032862;28;20560;-89
2022/11/08 00:29:42;;;;;;;2.57;0.80;;;15.00;99.90;;;;;;5014535;28;20603;-88
2022/11/08 00:32:12;;;;;;;2.67;0.83;;;15.10;99.90;;;;;;5014932;28;20607;-88
2022/11/08 00:34:37;;;;;;;5.63;1.30;;;15.10;99.90;;;;;;5032871;28;20560;-88
2022/11/08 00:37:04;;;;;;;3.53;0.90;;;15.10;99.90;;;;;;5032767;28;20616;-88
2022/11/08 00:39:30;;;;;;;5.13;0.80;;;15.20;99.90;;;;;;5032672;28;20560;-88
2022/11/08 00:41:56;;;;;;;4.90;1.10;;;15.30;99.90;;;;;;5032726;28;20631;-86
2022/11/08 00:44:21;;;;;;;3.63;1.00;;;15.30;99.90;;;;;;5031381;28;20161;-86
2022/11/08 00:46:47;;;;;;;4.13;1.13;;;15.30;99.90;;;;;;5032774;28;20572;-86
2022/11/08 00:49:13;;;;;;;3.30;1.00;;;15.40;99.90;;;;;;5033133;28;20257;-86
2022/11/08 00:51:39;;;;;;;2.17;0.80;;;15.40;99.90;;;;;;5032505;28;20658;-85
2022/11/08 00:54:06;;;;;;;2.67;0.80;;;15.50;99.90;;;;;;5050021;28;20560;-87
2022/11/08 00:56:32;;;;;;;2.50;0.83;;;15.50;99.90;;;;;;5033340;28;20200;-86
2022/11/08 00:58:58;;;;;;;3.17;1.00;;;15.50;99.90;;;;;;5037439;28;20569;-86
2022/11/08 01:01:25;;;;;;;5.00;1.10;;;15.60;99.90;;;;;;5014789;28;20988;-86
2022/11/08 01:03:51;;;;;;;3.10;0.90;;;15.60;99.90;;;;;;5032052;28;20904;-87
2022/11/08 01:06:19;;;;;;;4.17;1.00;;;15.60;99.90;;;;;;5031083;28;20577;-87
2022/11/08 01:08:45;;;;;;;5.53;1.00;;;15.70;99.90;;;;;;5038696;28;20928;-87
2022/11/08 01:11:20;;;;;;;5.80;1.00;;;15.70;99.90;;;;;;5034407;28;20635;-87
2022/11/08 01:13:46;;;;;;;6.00;1.57;;;15.70;99.90;;;;;;5052018;28;20591;-88
2022/11/08 01:16:20;;;;;;;2.37;1.23;;;15.80;99.90;;;;;;5050621;28;20567;-86
2022/11/08 01:18:48;;;;;;;2.37;1.00;;;15.90;99.90;;;;;;5052077;28;21152;-87
2022/11/08 01:21:14;;;;;;;4.00;0.97;;;15.90;99.90;;;;;;5052361;28;20644;-87
2022/11/08 01:23:41;;;;;;;2.50;1.17;;;15.90;99.90;;;;;;5035904;28;21112;-87
2022/11/08 01:26:10;;;;;;;4.70;0.90;;;15.90;99.90;;;;;;5042956;28;20905;-87
2022/11/08 01:28:36;;;;;;;3.07;1.00;;;15.90;99.90;;;;;;5051201;28;20564;-88
2022/11/08 01:31:08;;;;;;;6.30;1.23;;;16.00;99.90;;;;;;5052138;28;20694;-87
2022/11/08 01:33:35;;;;;;;5.00;1.00;;;16.00;99.90;;;;;;5050648;28;20567;-87
2022/11/08 01:36:01;;;;;;;2.63;0.90;;;16.00;99.90;;;;;;5058670;28;20578;-87
2022/11/08 01:38:26;;;;;;;3.63;1.07;;;16.00;99.90;;;;;;5051847;28;21292;-87
2022/11/08 01:40:52;;;;;;;2.83;1.10;;;16.00;99.90;;;;;;5038643;28;20615;-87
2022/11/08 01:43:30;;;;;;;2.50;0.90;;;16.00;99.90;;;;;;5055591;28;20180;-86
2022/11/08 01:46:14;;;;;;;4.33;1.20;;;16.00;99.90;;;;;;5071423;28;20169;-86
2022/11/08 01:48:56;;;;;;;4.90;1.40;;;16.00;99.90;;;;;;5071385;28;20567;-86
2022/11/08 01:51:32;;;;;;;5.20;1.20;;;16.00;99.90;;;;;;5055758;28;21200;-86
2022/11/08 01:54:00;;;;;;;3.00;0.97;;;16.00;99.90;;;;;;5055621;28;20571;-87
2022/11/08 01:56:26;;;;;;;3.23;1.20;;;15.90;99.90;;;;;;5055942;28;20567;-86
2022/11/08 01:58:54;;;;;;;4.13;1.50;;;15.90;99.90;;;;;;5055888;28;20584;-86
2022/11/08 02:01:19;;;;;;;2.90;1.37;;;15.90;99.90;;;;;;5056067;28;20631;-85
2022/11/08 02:03:46;;;;;;;4.50;1.00;;;15.90;99.90;;;;;;5055832;28;20598;-86
2022/11/08 02:06:12;;;;;;;3.30;1.10;;;15.90;99.90;;;;;;5056355;28;20173;-86
2022/11/08 02:08:43;;;;;;;2.53;1.10;;;15.80;99.90;;;;;;5055921;28;20564;-85
2022/11/08 02:11:13;;;;;;;4.10;1.47;;;15.80;99.90;;;;;;5071928;28;20594;-86
2022/11/08 02:13:39;;;;;;;3.03;1.20;;;15.80;99.90;;;;;;5060019;28;20615;-86
2022/11/08 02:16:15;;;;;;;6.03;1.40;;;15.70;99.90;;;;;;5055851;28;20566;-86
2022/11/08 02:18:42;;;;;;;2.83;1.00;;;15.60;99.90;;;;;;5056208;28;20587;-86
2022/11/08 02:21:27;;;;;;;5.20;1.10;;;15.50;99.90;;;;;;5056604;28;20634;-85
2022/11/08 02:23:55;;;;;;;3.80;1.33;;;15.40;99.90;;;;;;5059383;28;21030;-86
2022/11/08 02:26:33;;;;;;;4.07;1.10;;;15.30;99.90;;;;;;5071374;28;20536;-84
2022/11/08 02:29:23;;;;;;;4.90;1.33;;;15.20;99.90;;;;;;5054374;28;21000;-87
2022/11/08 02:31:49;;;;;;;3.43;1.43;;;15.10;99.90;;;;;;5057729;28;20618;-85
2022/11/08 02:34:15;;;;;;;4.33;1.40;;;15.10;99.90;;;;;;5067924;28;20986;-86
2022/11/08 02:36:48;;;;;;;4.47;1.30;;;15.00;99.90;;;;;;5064954;28;20611;-87
2022/11/08 02:39:14;;;;;;;10.43;3.03;;;14.90;99.90;;;;;;5062593;28;20642;-87
2022/11/08 02:41:39;;;;;;;5.77;2.13;;;14.80;99.90;;;;;;5063819;28;20638;-88
2022/11/08 02:44:05;;;;;;;7.10;2.33;;;14.80;99.90;;;;;;5062540;28;20173;-87
2022/11/08 02:46:31;;;;;;;3.93;1.33;;;14.70;99.90;;;;;;5061663;28;20169;-87
2022/11/08 02:48:57;;;;;;;5.33;1.37;;;14.60;99.90;;;;;;5069071;28;20153;-87
2022/11/08 02:51:23;;;;;;;5.70;1.57;;;14.60;99.90;;;;;;5057468;28;20606;-87
2022/11/08 02:53:48;;;;;;;4.33;1.50;;;14.50;99.90;;;;;;5056859;28;20238;-87
2022/11/08 02:56:14;;;;;;;4.83;1.53;;;14.50;99.90;;;;;;5056749;28;20633;-88
2022/11/08 02:58:42;;;;;;;3.90;1.50;;;14.40;99.90;;;;;;5056807;28;20215;-89
2022/11/08 03:01:07;;;;;;;3.45;1.60;;;14.40;99.90;;;;;;5055872;28;20189;-88
2022/11/08 03:03:33;;;;;;;2.73;1.37;;;14.30;99.90;;;;;;5054402;28;20621;-87
2022/11/08 03:05:59;;;;;;;3.13;1.40;;;14.30;99.90;;;;;;5055008;28;20165;-87
2022/11/08 03:08:24;;;;;;;4.67;1.60;;;14.20;99.90;;;;;;5050494;28;20634;-87
2022/11/08 03:10:50;;;;;;;2.70;1.50;;;14.20;99.90;;;;;;5035116;28;20188;-87
2022/11/08 03:13:16;;;;;;;3.93;1.50;;;14.20;99.90;;;;;;5016800;28;20591;-87
2022/11/08 03:15:42;;;;;;;5.40;1.87;;;14.20;99.90;;;;;;5034483;28;20173;-87
2022/11/08 03:18:07;;;;;;;2.90;1.40;;;14.10;99.90;;;;;;5033221;28;20236;-88
2022/11/08 03:20:33;;;;;;;2.07;1.10;;;14.10;99.90;;;;;;5033294;28;20293;-87
2022/11/08 03:23:01;;;;;;;5.10;1.40;;;14.10;99.90;;;;;;5034228;28;20172;-87
2022/11/08 03:25:27;;;;;;;3.50;1.30;;;14.00;99.90;;;;;;5034770;28;20162;-87
2022/11/08 03:27:53;;;;;;;2.37;1.20;;;14.00;99.90;;;;;;5038612;28;21187;-87
2022/11/08 03:30:19;;;;;;;4.60;1.30;;;14.00;99.90;;;;;;5034242;28;20671;-87
2022/11/08 03:32:45;;;;;;;2.23;1.40;;;13.90;99.90;;;;;;5034006;28;20585;-87
2022/11/08 03:35:12;;;;;;;2.83;1.10;;;13.90;99.90;;;;;;5034024;28;20193;-87
2022/11/08 03:37:38;;;;;;;3.70;1.50;;;13.90;99.90;;;;;;5033812;28;20661;-87
2022/11/08 03:40:04;;;;;;;8.13;1.57;;;13.90;99.90;;;;;;5033969;28;20992;-86
2022/11/08 03:42:30;;;;;;;3.90;1.10;;;13.90;99.90;;;;;;5033750;28;20193;-87
2022/11/08 03:44:55;;;;;;;3.17;1.40;;;13.80;99.90;;;;;;5033997;28;20563;-88
2022/11/08 03:47:21;;;;;;;5.90;1.70;;;13.80;99.90;;;;;;5033938;28;20525;-86
2022/11/08 03:49:47;;;;;;;3.83;1.50;;;13.80;99.90;;;;;;5033584;28;20269;-86
2022/11/08 03:52:13;;;;;;;2.37;1.20;;;13.80;99.90;;;;;;5033195;28;20197;-87
2022/11/08 03:54:38;;;;;;;4.47;1.10;;;13.80;99.90;;;;;;5015936;28;20181;-86
2022/11/08 03:57:04;;;;;;;2.93;1.27;;;13.80;99.90;;;;;;5033473;28;20197;-87
2022/11/08 03:59:30;;;;;;;3.47;1.30;;;13.80;99.90;;;;;;5033500;28;20633;-87
2022/11/08 04:01:55;;;;;;;2.53;1.07;;;13.70;99.90;;;;;;5033290;28;20197;-87
2022/11/08 04:04:21;;;;;;;3.10;1.33;;;13.70;99.90;;;;;;5036741;28;20162;-88
2022/11/08 04:06:47;;;;;;;3.80;1.60;;;13.70;99.90;;;;;;5035407;28;20963;-88
2022/11/08 04:09:13;;;;;;;4.93;1.23;;;13.70;99.90;;;;;;5043929;28;20184;-88
2022/11/08 04:17:07;;;;;;;7.53;2.23;;;13.60;99.90;;;;;;5052682;28;20718;-88
2022/11/08 04:22:17;;;;;;;2.60;1.20;;;13.50;99.90;;;;;;5052675;28;20597;-87
2022/11/08 04:24:43;;;;;;;3.23;1.33;;;13.50;99.90;;;;;;5051747;28;20556;-88
2022/11/08 04:27:08;;;;;;;6.17;1.87;;;13.50;99.90;;;;;;5052818;28;20173;-89
2022/11/08 04:29:34;;;;;;;4.20;1.93;;;13.40;99.90;;;;;;5052860;28;20169;-87
2022/11/08 04:32:00;;;;;;;3.57;1.67;;;13.40;99.90;;;;;;5052367;28;20277;-88
2022/11/08 04:34:25;;;;;;;4.17;1.70;;;13.30;99.90;;;;;;5035115;28;20259;-89
2022/11/08 04:36:51;;;;;;;4.90;1.80;;;13.30;99.90;;;;;;5052561;28;20204;-88
2022/11/08 04:39:17;;;;;;;5.20;2.10;;;13.30;99.90;;;;;;5052902;28;20168;-88
2022/11/08 04:41:43;;;;;;;3.40;1.77;;;13.30;99.90;;;;;;5049161;28;20200;-89
2022/11/08 04:44:09;;;;;;;4.53;1.80;;;13.20;99.90;;;;;;5052369;28;20172;-88
2022/11/08 04:46:35;;;;;;;4.65;2.10;;;13.20;99.90;;;;;;5052882;28;20639;-89
2022/11/08 04:49:01;;;;;;;7.28;1.70;;;13.20;99.90;;;;;;5052746;28;20219;-88
2022/11/08 04:51:30;;;;;;;3.65;1.70;;;13.20;99.90;;;;;;5052251;28;20192;-87
2022/11/08 04:53:58;;;;;;;6.53;2.20;;;13.10;99.90;;;;;;5050805;28;20268;-87
2022/11/08 04:56:26;;;;;;;3.65;1.42;;;13.10;99.90;;;;;;5067896;28;20304;-86
2022/11/08 04:58:54;;;;;;;6.20;1.95;;;13.10;99.90;;;;;;5052531;28;20202;-86
2022/11/08 05:01:22;;;;;;;5.28;2.10;;;13.00;99.90;;;;;;5051976;28;20224;-86
2022/11/08 05:03:49;;;;;;;6.68;2.47;;;13.00;99.90;;;;;;5050787;28;20458;-86
2022/11/08 05:06:18;;;;;;;6.60;2.17;;;13.00;99.90;;;;;;5070354;28;20207;-86
2022/11/08 05:08:44;;;;;;;6.07;1.77;;;13.00;99.90;;;;;;5048793;28;20177;-86
2022/11/08 05:11:15;;;;;;;3.30;1.95;;;13.00;99.90;;;;;;5038419;28;20193;-85
2022/11/08 05:13:42;;;;;;;4.85;2.85;;;12.90;99.90;;;;;;5032637;28;20174;-85
2022/11/08 05:16:13;;;;;;;4.68;2.15;;;12.90;99.90;;;;;;5032910;28;20247;-85
2022/11/08 05:18:38;;;;;;;3.65;2.10;;;12.90;99.90;;;;;;5039554;28;20193;-84
2022/11/08 05:23:50;;;;;;;3.45;1.90;;;12.90;99.90;;;;;;5031632;28;20540;-85
2022/11/08 05:26:17;;;;;;;6.72;1.60;;;12.80;99.90;;;;;;5031984;28;20168;-85
2022/11/08 05:28:43;;;;;;;3.55;2.00;;;12.80;99.90;;;;;;5032939;28;20166;-84
2022/11/08 05:31:09;;;;;;;7.10;2.00;;;12.80;99.90;;;;;;5052501;28;20235;-82
2022/11/08 05:33:37;;;;;;;3.33;1.40;;;12.80;99.90;;;;;;5049543;28;20556;-82
2022/11/08 05:36:05;;;;;;;2.17;1.20;;;12.80;99.90;;;;;;5035773;28;20173;-83
2022/11/08 05:38:31;;;;;;;2.67;1.25;;;12.80;99.90;;;;;;5035097;28;20566;-83
2022/11/08 05:41:05;;;;;;;3.65;1.80;;;12.80;99.90;;;;;;5050193;28;20209;-83
2022/11/08 05:43:31;;;;;;;5.32;1.60;;;12.80;99.90;;;;;;5032663;28;20256;-83
2022/11/08 05:45:57;;;;;;;2.97;1.70;;;12.70;99.90;;;;;;5048850;28;20541;-83
2022/11/08 05:48:23;;;;;;;8.30;2.23;;;12.70;99.90;;;;;;5032936;28;20173;-83
2022/11/08 05:50:49;;;;;;;5.20;1.70;;;12.70;99.90;;;;;;5033021;28;20735;-82
2022/11/08 05:53:15;;;;;;;2.97;1.87;;;12.70;99.90;;;;;;5031909;28;20169;-84
2022/11/08 05:55:41;;;;;;;5.30;1.60;;;12.70;99.90;;;;;;5036980;28;20169;-83
2022/11/08 05:58:07;;;;;;;2.53;1.30;;;12.70;99.90;;;;;;5031949;28;20194;-84
2022/11/08 06:00:33;;;;;;;4.63;2.10;;;12.70;99.90;;;;;;5032151;28;20638;-83
2022/11/08 06:03:01;;;;;;;3.65;1.63;;;12.70;99.90;;;;;;5054456;28;20264;-83
2022/11/08 06:05:27;;;;;;;3.45;1.65;;;12.70;99.90;;;;;;5030593;28;20223;-84
2022/11/08 06:07:53;;;;;;;4.13;1.50;;;12.70;99.90;;;;;;5047309;28;20178;-83
2022/11/08 06:10:19;;;;;;;4.07;2.08;;;12.70;99.90;;;;;;5031701;28;20181;-83
2022/11/08 06:12:45;;;;;;;3.00;1.45;;;12.70;99.90;;;;;;5031517;28;20170;-83
2022/11/08 06:15:11;;;;;;;3.23;1.43;;;12.70;99.90;;;;;;5031949;28;20308;-83
2022/11/08 06:17:37;;;;;;;4.27;1.80;;;12.70;99.90;;;;;;5031351;28;20619;-84
2022/11/08 06:20:05;;;;;;;5.53;1.53;;;12.70;99.90;;;;;;5047016;28;20638;-84
2022/11/08 06:22:32;;;;;;;2.70;1.50;;;12.70;99.90;;;;;;5046917;28;20578;-83
2022/11/08 06:24:58;;;;;;;6.13;1.52;;;12.70;99.90;;;;;;5032090;28;20173;-83
2022/11/08 06:27:24;;;;;;;6.00;2.47;;;12.70;99.90;;;;;;5034220;28;20650;-83
2022/11/08 06:29:50;;;;;;;2.40;1.45;;;12.70;99.90;;;;;;5051944;28;20253;-83
2022/11/08 06:32:16;;;;;;;3.43;1.60;;;12.70;99.90;;;;;;5041545;28;20216;-83
2022/11/08 06:34:44;;;;;;;5.90;2.00;;;12.70;99.90;;;;;;5051826;28;20664;-83
2022/11/08 06:37:12;;;;;;;3.15;1.27;;;12.70;99.90;;;;;;5036037;28;20619;-84
2022/11/08 06:39:39;;;;;;;4.10;1.77;;;12.70;99.90;;;;;;5051016;28;20170;-84
2022/11/08 06:42:05;;;;;;;7.25;2.33;;;12.70;99.90;;;;;;5034359;28;20558;-85
2022/11/08 06:44:30;;;;;;;4.13;1.77;;;12.70;99.90;;;;;;5036127;28;20176;-83
2022/11/08 06:46:56;;;;;;;4.77;1.47;;;12.70;99.90;;;;;;5035517;28;20303;-84
2022/11/08 06:49:22;;;;;;;3.97;1.80;;;12.70;99.90;;;;;;5034973;28;20192;-80
2022/11/08 06:51:49;;;;;;;5.25;1.85;;;12.70;99.90;;;;;;5034190;28;20193;-80
2022/11/08 06:54:15;;;;;;;4.55;1.55;;;12.70;99.90;;;;;;5033983;28;20165;-80
2022/11/08 06:56:41;;;;;;;3.92;0.98;;;12.70;99.90;;;;;;5034164;28;20260;-80
2022/11/08 06:59:08;;;;;;;5.90;2.47;;;12.70;99.90;;;;;;5034289;28;20197;-84
2022/11/08 07:01:35;;;;;;;3.38;1.35;;;12.70;99.90;;;;;;5033197;28;20201;-84
2022/11/08 07:04:01;;;;;;;4.80;1.60;;;12.80;99.90;;;;;;5033786;28;20177;-83
2022/11/08 07:06:27;;;;;;;5.03;1.92;;;12.70;99.90;;;;;;5034097;28;20157;-85
2022/11/08 07:08:53;;;;;;;5.43;1.52;;;12.80;99.90;;;;;;5035072;28;20177;-84
2022/11/08 07:11:19;;;;;;;6.20;2.03;;;12.80;99.90;;;;;;5033135;28;20181;-84
2022/11/08 07:13:46;;;;;;;5.90;1.50;;;12.80;99.90;;;;;;5034226;28;20162;-86
2022/11/08 07:16:12;;;;;;;2.93;1.20;;;12.90;99.90;;;;;;5034406;28;20178;-83
2022/11/08 07:18:38;;;;;;;2.83;1.27;;;12.90;99.90;;;;;;5033941;28;20626;-87
2022/11/08 07:21:04;;;;;;;4.03;1.67;;;12.90;99.90;;;;;;5033996;28;20300;-86
2022/11/08 07:23:30;;;;;;;6.37;1.13;;;12.90;99.90;;;;;;5033832;28;20166;-87
2022/11/08 07:26:00;;;;;;;5.05;1.67;;;13.00;99.90;;;;;;5034353;28;20618;-85
2022/11/08 07:28:26;;;;;;;4.65;1.17;;;13.10;99.90;;;;;;5033738;28;20177;-88
2022/11/08 07:31:00;;;;;;;3.90;1.43;;;13.10;99.90;;;;;;5033333;28;20186;-88
2022/11/08 07:33:27;;;;;;;2.93;1.57;;;13.10;99.90;;;;;;5034594;28;20165;-88
2022/11/08 07:35:53;;;;;;;3.30;1.40;;;13.20;99.90;;;;;;5024478;28;20629;-88
2022/11/08 07:38:19;;;;;;;3.20;1.07;;;13.20;99.90;;;;;;5034682;28;20670;-88
2022/11/08 07:40:45;;;;;;;4.10;1.20;;;13.20;99.90;;;;;;5033911;28;20726;-89
2022/11/08 07:43:11;;;;;;;3.97;1.10;;;13.30;99.90;;;;;;5032374;28;20596;-88
2022/11/08 07:45:36;;;;;;;4.53;1.23;;;13.30;99.90;;;;;;5020924;28;20690;-89
2022/11/08 07:48:05;;;;;;;3.20;1.77;;;13.40;99.90;;;;;;5037638;28;20177;-89
2022/11/08 07:50:31;;;;;;;4.72;1.48;;;13.40;99.90;;;;;;5033776;28;20216;-89
2022/11/08 07:52:57;;;;;;;3.63;1.23;;;13.40;99.90;;;;;;5015386;28;20267;-89
2022/11/08 07:55:24;;;;;;;2.47;1.00;;;13.50;99.90;;;;;;5033908;28;20565;-88
2022/11/08 07:57:49;;;;;;;2.30;1.10;;;13.50;99.90;;;;;;5033390;28;20634;-85
2022/11/08 08:00:16;;;;;;;3.70;1.00;;;13.50;99.90;;;;;;5033134;28;20667;-83
2022/11/08 08:02:42;;;;;;;2.92;1.40;;;13.60;99.90;;;;;;5032888;28;20173;-84
2022/11/08 08:05:08;;;;;;;3.00;1.38;;;13.70;99.90;;;;;;5015858;28;20575;-88
2022/11/08 08:07:35;;;;;;;4.67;1.00;;;13.70;99.90;;;;;;5033163;28;20247;-82
2022/11/08 08:10:01;;;;;;;5.90;1.27;;;13.70;99.90;;;;;;5033124;28;20165;-83
2022/11/08 08:12:26;;;;;;;5.73;1.60;;;13.80;99.90;;;;;;5032695;28;20636;-82
2022/11/08 08:14:52;;;;;;;3.70;1.20;;;13.90;99.90;;;;;;5032916;28;21132;-81
2022/11/08 08:17:18;;;;;;;2.43;0.90;;;14.00;99.90;;;;;;5032745;28;20189;-82
2022/11/08 08:19:44;;;;;;;3.20;1.00;;;14.10;99.90;;;;;;5032742;28;20173;-81
2022/11/08 08:22:09;;;;;;;3.43;1.60;;;14.20;99.90;;;;;;5032345;28;20184;-82
2022/11/08 08:24:35;;;;;;;2.83;1.30;;;14.30;99.90;;;;;;5036653;28;20162;-82
2022/11/08 08:27:01;;;;;;;2.63;1.17;;;14.40;99.90;;;;;;5032588;28;20170;-81
2022/11/08 08:29:27;;;;;;;3.27;1.00;;;14.40;99.90;;;;;;5031096;28;20166;-82
2022/11/08 08:31:53;;;;;;;3.73;1.00;;;14.50;99.90;;;;;;5014812;28;20208;-81
2022/11/08 08:34:19;;;;;;;5.20;2.70;;;14.60;99.90;;;;;;5031239;28;20569;-82
2022/11/08 08:36:44;;;;;;;4.40;1.00;;;14.70;99.90;;;;;;5032286;28;20193;-82
2022/11/08 08:39:10;;;;;;;2.07;1.00;;;14.80;99.90;;;;;;5014670;28;21128;-80
2022/11/08 08:41:36;;;;;;;4.50;1.00;;;14.90;99.90;;;;;;5032287;28;20209;-81
2022/11/08 08:44:02;;;;;;;2.20;1.10;;;15.00;99.90;;;;;;5032863;28;20544;-81
2022/11/08 08:46:27;;;;;;;2.73;0.90;;;15.00;99.90;;;;;;5030607;28;20166;-81
2022/11/08 08:48:53;;;;;;;4.73;1.33;;;15.10;99.90;;;;;;5032198;28;20185;-81
2022/11/08 08:51:20;;;;;;;4.37;1.17;;;15.20;99.90;;;;;;5036771;28;20650;-80
2022/11/08 08:53:46;;;;;;;4.07;1.00;;;15.30;99.90;;;;;;5032166;28;20591;-82
2022/11/08 08:56:11;;;;;;;1.80;0.90;;;15.40;99.90;;;;;;5031825;28;20827;-80
2022/11/08 08:58:37;;;;;;;6.20;1.00;;;15.50;99.90;;;;;;5031980;28;20281;-79
2022/11/08 09:01:04;;;;;;;2.03;0.83;;;15.60;99.90;;;;;;5036577;28;20190;-80
2022/11/08 09:03:32;;;;;;;4.63;1.00;;;15.70;99.90;;;;;;5031480;28;20220;-80
2022/11/08 09:05:58;;;;;;;1.97;0.90;;;15.70;99.90;;;;;;5031675;28;20568;-80
2022/11/08 09:08:24;;;;;;;2.53;0.90;;;15.80;99.90;;;;;;5035830;28;20571;-81
2022/11/08 09:10:54;;;;;;;6.13;1.13;;;15.70;99.90;;;;;;5052889;28;21272;-83
2022/11/08 09:13:20;;;;;;;3.10;1.07;;;15.70;99.90;;;;;;5054927;28;20584;-84
2022/11/08 09:15:46;;;;;;;3.13;1.00;;;15.70;99.90;;;;;;5055270;28;20563;-84
2022/11/08 09:18:12;;;;;;;2.43;1.10;;;15.70;99.90;;;;;;5051699;28;20630;-86
2022/11/08 09:20:38;;;;;;;2.30;1.00;;;15.70;99.90;;;;;;5052389;28;20188;-85
2022/11/08 09:23:04;;;;;;;3.00;1.20;;;15.70;99.90;;;;;;5033812;28;20176;-87
2022/11/08 09:25:30;;;;;;;4.17;0.80;;;15.70;99.90;;;;;;5056764;28;20547;-85
2022/11/08 09:27:56;;;;;;;2.77;1.13;;;15.80;99.90;;;;;;5037686;28;20612;-86
2022/11/08 09:30:22;;;;;;;3.13;1.10;;;15.90;99.90;;;;;;5030689;28;20576;-86
2022/11/08 09:32:48;;;;;;;1.70;0.93;;;15.90;99.90;;;;;;5030436;28;20580;-80
2022/11/08 09:35:13;;;;;;;3.33;1.00;;;15.90;99.90;;;;;;5031854;28;20934;-82
2022/11/08 09:37:39;;;;;;;3.60;1.30;;;15.90;99.90;;;;;;5036673;28;20209;-85
2022/11/08 09:40:05;;;;;;;2.17;0.87;;;15.80;99.90;;;;;;5031760;28;20976;-82
2022/11/08 09:42:52;;;;;;;2.30;1.00;;;15.80;99.90;;;;;;5031980;28;20582;-84
2022/11/08 09:45:36;;;;;;;2.20;0.90;;;15.80;99.90;;;;;;5034900;28;20556;-90
2022/11/08 09:48:06;;;;;;;3.37;1.27;;;15.80;99.90;;;;;;5032544;28;20565;-87
2022/11/08 09:50:41;;;;;;;2.80;1.00;;;15.80;99.90;;;;;;5032527;28;20576;-86
2022/11/08 09:53:18;;;;;;;3.00;1.00;;;15.80;99.90;;;;;;5035132;28;20559;-85
2022/11/08 09:55:59;;;;;;;3.50;1.23;;;15.90;99.90;;;;;;5034372;28;20591;-85
2022/11/08 09:58:33;;;;;;;3.27;0.90;;;15.90;99.90;;;;;;5015239;28;20620;-86
2022/11/08 10:00:59;;;;;;;3.30;1.10;;;15.90;99.90;;;;;;5032832;28;20604;-85
2022/11/08 10:03:26;;;;;;;2.50;1.00;;;16.00;99.90;;;;;;5017981;28;20575;-85
2022/11/08 10:06:28;;;;;;;3.97;1.30;;;16.00;99.90;;;;;;5033813;28;21030;-85
2022/11/08 10:09:09;;;;;;;5.20;1.13;;;16.00;99.90;;;;;;5035164;28;20604;-86
2022/11/08 10:11:45;;;;;;;2.00;1.60;;;16.10;99.90;;;;;;5035281;28;21295;-86
2022/11/08 10:14:30;;;;;;;3.13;1.30;;;16.10;99.90;;;;;;5037657;28;20921;-86
2022/11/08 10:17:30;;;;;;;2.70;1.30;;;16.20;99.90;;;;;;5037277;28;20620;-85
2022/11/08 10:20:16;;;;;;;2.10;1.07;;;16.10;99.90;;;;;;5038990;28;20600;-83
2022/11/08 10:23:27;;;;;;;3.00;0.93;;;16.10;99.90;;;;;;5042302;28;20626;-87
2022/11/08 10:25:57;;;;;;;3.30;1.07;;;16.10;99.90;;;;;;5026526;28;20623;-87
2022/11/08 10:28:38;;;;;;;2.97;0.90;;;16.10;99.90;;;;;;5045317;28;20572;-87
2022/11/08 10:31:05;;;;;;;1.73;0.90;;;16.10;99.90;;;;;;5043923;28;20596;-85
2022/11/08 10:33:36;;;;;;;1.73;0.80;;;16.10;99.90;;;;;;5034582;28;20584;-85
2022/11/08 10:36:16;;;;;;;1.60;0.90;;;16.10;99.90;;;;;;5029884;28;20590;-87
2022/11/08 10:38:50;;;;;;;3.80;1.10;;;16.10;99.90;;;;;;5035395;28;20662;-86
2022/11/08 10:41:32;;;;;;;2.73;1.03;;;16.10;99.90;;;;;;5035232;28;20616;-88
2022/11/08 10:44:03;;;;;;;3.00;0.90;;;16.20;99.90;;;;;;5035313;28;20680;-84
2022/11/08 10:46:44;;;;;;;2.43;1.10;;;16.20;99.90;;;;;;5017060;28;20580;-88
2022/11/08 10:49:18;;;;;;;2.53;1.03;;;16.20;99.90;;;;;;5037248;28;21170;-86
2022/11/08 10:51:45;;;;;;;2.17;1.00;;;16.30;99.90;;;;;;5041004;28;20592;-88
2022/11/08 10:54:39;;;;;;;3.20;1.27;;;16.40;99.90;;;;;;5040902;28;20553;-88
2022/11/08 10:57:05;;;;;;;2.57;0.90;;;16.40;99.90;;;;;;5043566;28;20615;-87
2022/11/08 10:59:32;;;;;;;2.77;1.10;;;16.50;99.90;;;;;;5045398;28;20564;-89
2022/11/08 11:01:58;;;;;;;2.00;1.00;;;16.50;99.90;;;;;;5042222;28;20666;-85
2022/11/08 11:04:30;;;;;;;2.30;1.00;;;16.60;99.90;;;;;;5035144;28;20576;-89
2022/11/08 11:07:22;;;;;;;3.00;1.10;;;16.70;99.90;;;;;;5034916;28;20823;-87
2022/11/08 11:09:48;;;;;;;1.77;0.90;;;16.70;99.90;;;;;;5034153;28;20599;-87
2022/11/08 11:12:14;;;;;;;5.60;1.30;;;16.80;99.90;;;;;;5017213;28;21172;-87
2022/11/08 11:14:40;;;;;;;3.10;1.03;;;16.90;99.90;;;;;;5017518;28;20177;-87
2022/11/08 11:17:16;;;;;;;2.27;0.90;;;16.90;99.90;;;;;;5033210;28;20284;-86
2022/11/08 11:19:51;;;;;;;2.70;1.03;;;17.00;99.90;;;;;;5035099;28;20180;-86
2022/11/08 11:22:26;;;;;;;3.20;1.60;;;17.20;99.90;;;;;;5034080;28;20698;-86
2022/11/08 11:24:52;;;;;;;2.33;1.17;;;17.20;99.90;;;;;;5016837;28;20583;-88
2022/11/08 11:27:29;;;;;;;3.00;1.53;;;17.20;99.90;;;;;;5033977;28;20666;-87
2022/11/08 11:30:22;;;;;;;2.67;1.33;;;17.30;99.90;;;;;;5020630;28;20583;-88
2022/11/08 11:33:05;;;;;;;2.57;1.33;;;17.30;99.90;;;;;;5016397;28;20572;-88
2022/11/08 11:35:52;;;;;;;2.30;1.00;;;17.40;99.90;;;;;;5030105;28;20596;-88
2022/11/08 11:38:33;;;;;;;3.40;1.20;;;17.50;99.90;;;;;;5015304;28;20609;-88
2022/11/08 11:41:03;;;;;;;5.13;1.20;;;17.50;99.90;;;;;;5014497;28;20628;-85
2022/11/08 11:43:37;;;;;;;3.93;1.87;;;17.60;99.90;;;;;;4997079;28;20585;-88
2022/11/08 11:46:37;;;;;;;2.70;1.10;;;17.70;99.90;;;;;;5016404;28;20930;-88
2022/11/08 11:49:11;;;;;;;5.50;1.07;;;17.70;99.90;;;;;;5000267;28;20623;-88
2022/11/08 11:51:37;;;;;;;2.17;1.10;;;17.80;99.90;;;;;;4997027;28;20607;-86
2022/11/08 11:54:07;;;;;;;3.27;1.23;;;17.80;99.90;;;;;;5014380;28;20570;-89
2022/11/08 11:56:47;;;;;;;3.30;0.97;;;17.80;99.90;;;;;;5014648;28;20166;-86
2022/11/08 11:59:28;;;;;;;2.80;1.20;;;17.80;99.90;;;;;;5013662;28;20576;-88
2022/11/08 12:02:06;;;;;;;2.93;1.40;;;17.90;99.90;;;;;;4996328;28;20964;-88
2022/11/08 12:04:47;;;;;;;4.33;1.40;;;18.00;99.90;;;;;;5016707;28;20558;-88
2022/11/08 12:07:20;;;;;;;2.67;1.30;;;18.00;99.90;;;;;;5033355;28;20599;-82
2022/11/08 12:10:24;;;;;;;3.90;1.00;;;18.00;99.90;;;;;;5041919;28;20628;-85
2022/11/08 12:13:42;;;;;;;4.00;2.70;;;17.90;99.90;;;;;;5033933;28;20584;-90
2022/11/08 12:16:22;;;;;;;4.10;1.80;;;17.90;99.90;;;;;;5027954;28;20585;-86
2022/11/08 12:18:51;;;;;;;3.03;1.77;;;17.90;99.90;;;;;;5032918;28;21039;-88
2022/11/08 12:21:54;;;;;;;2.47;1.33;;;17.90;99.90;;;;;;5015373;28;21160;-87
2022/11/08 12:24:49;;;;;;;2.10;1.10;;;18.00;99.90;;;;;;5032054;28;21155;-87
2022/11/08 12:27:24;;;;;;;3.67;1.77;;;18.00;99.90;;;;;;5032688;28;20913;-87
2022/11/08 12:30:07;;;;;;;4.43;2.30;;;18.00;99.90;;;;;;5034546;28;20576;-87
2022/11/08 12:32:58;;;;;;;3.40;1.40;;;18.00;99.90;;;;;;5035519;28;20596;-87
2022/11/08 12:35:48;;;;;;;2.90;1.10;;;18.10;99.90;;;;;;5018613;28;20583;-90
2022/11/08 12:38:41;;;;;;;1.70;0.83;;;18.10;99.90;;;;;;5037003;28;20759;-87
2022/11/08 12:41:33;;;;;;;1.93;1.00;;;18.20;99.90;;;;;;5012447;28;20694;-89
2022/11/08 12:44:23;;;;;;;2.33;1.10;;;18.20;99.90;;;;;;5039766;28;20631;-89
2022/11/08 12:47:20;;;;;;;3.50;1.13;;;18.20;99.90;;;;;;5033204;28;21066;-89
2022/11/08 12:50:12;;;;;;;5.17;1.00;;;18.20;99.90;;;;;;5032719;28;20678;-88
2022/11/08 12:52:46;;;;;;;3.30;1.20;;;18.20;99.90;;;;;;5035951;28;20627;-88
2022/11/08 12:55:22;;;;;;;5.43;1.23;;;18.30;99.90;;;;;;5032556;28;20571;-87
2022/11/08 12:57:52;;;;;;;4.30;1.03;;;18.30;99.90;;;;;;5014681;28;20584;-88
2022/11/08 13:00:18;;;;;;;2.43;1.13;;;18.30;99.90;;;;;;5032273;28;20548;-89
2022/11/08 13:02:57;;;;;;;5.17;1.70;;;18.30;99.90;;;;;;5032943;28;20635;-88
2022/11/08 13:05:28;;;;;;;3.50;1.13;;;18.30;99.90;;;;;;5033936;28;20566;-88
2022/11/08 13:08:16;;;;;;;5.00;1.83;;;18.30;99.90;;;;;;5015162;28;20591;-89
2022/11/08 13:11:10;;;;;;;8.43;3.30;;;18.30;99.90;;;;;;5014518;28;20987;-88
2022/11/08 13:13:49;;;;;;;3.60;1.50;;;18.30;99.90;;;;;;4994882;28;20611;-88
2022/11/08 13:16:19;;;;;;;4.90;1.40;;;18.30;99.90;;;;;;5013452;28;20647;-87
2022/11/08 13:18:54;;;;;;;4.77;1.70;;;18.20;99.90;;;;;;5037260;28;20723;-85
2022/11/08 13:21:29;;;;;;;3.73;1.20;;;18.20;99.90;;;;;;5030704;28;20623;-86
2022/11/08 13:24:01;;;;;;;2.33;1.13;;;18.20;99.90;;;;;;5010362;28;20569;-88